Terminal Aerodrome Forecast
Issued by NWS Medford, OR

Home | Current Version | Previous Version | Text Only | Print | Product List | Glossary On
Versions: 1 2 3 4 5 6 7 8 9 10 11 12 13 14 15 16 17 18
000
FTUS46 KMFR 172300
TAFMFR
TAF
KMFR 172339Z 1800/1824 30015G20KT 3SM FU SCT025 SCT080 BKN120
     FM180200 30007KT 6SM HZ SCT025 SCT080 BKN120
     FM180400 VRB03KT P6SM FEW025 SCT080 BKN120
     FM181500 VRB03KT P6SM -SHRA FEW025 BKN060 BKN080
     FM182200 32007KT P6SM VCSH FEW030 SCT060 BKN100=

USA.gov is the U.S. government's official web portal to all federal, state and local government web resources and services.